Time;durP1;ratioP1;P1;durP2;ratioP2;P2;SDS_P1;SDS_P2;PMS_P1;PMS_P2;Temp;Humidity;BMP_temperature;BMP_pressure;BME280_temperature;BME280_humidity;BME280_pressure;Samples;Min_cycle;Max_cycle;Signal;HPM_P1;HPM_P2
2022/09/20 00:01:07;;;;;;;;;;;9.00;99.90;;;;;;5074094;28;19915;-67
2022/09/20 00:03:34;;;;;;;;;;;9.00;99.90;;;;;;5073956;28;19916;-67
2022/09/20 00:06:00;;;;;;;;;;;8.90;99.90;;;;;;5073957;28;19912;-66
2022/09/20 00:08:26;;;;;;;;;;;8.80;99.90;;;;;;5073910;28;20386;-67
2022/09/20 00:10:56;;;;;;;;;;;8.80;99.90;;;;;;5073643;28;19908;-66
2022/09/20 00:13:21;;;;;;;;;;;8.70;99.90;;;;;;5056031;28;20333;-67
2022/09/20 00:15:47;;;;;;;;;;;8.70;99.90;;;;;;5073719;28;19934;-66
2022/09/20 00:18:12;;;;;;;;;;;8.70;99.90;;;;;;5073522;28;19912;-66
2022/09/20 00:20:45;;;;;;;;;;;8.70;99.90;;;;;;5073829;28;19916;-66
2022/09/20 00:23:11;;;;;;;;;;;8.70;99.90;;;;;;5073685;28;20371;-67
2022/09/20 00:25:36;;;;;;;;;;;8.60;99.90;;;;;;5073519;28;19915;-66
2022/09/20 00:28:02;;;;;;;;;;;8.60;99.90;;;;;;5073422;28;19909;-66
2022/09/20 00:30:28;;;;;;;;;;;8.60;99.90;;;;;;5073447;28;19908;-67
2022/09/20 00:32:54;;;;;;;;;;;8.50;99.90;;;;;;5073668;28;19909;-66
2022/09/20 00:35:19;;;;;;;;;;;8.60;99.90;;;;;;5073412;28;20356;-67
2022/09/20 00:37:45;;;;;;;;;;;8.60;99.90;;;;;;5073394;28;20014;-67
2022/09/20 00:40:19;;;;;;;;;;;8.60;99.90;;;;;;5073634;28;20054;-66
2022/09/20 00:42:45;;;;;;;;;;;8.60;99.90;;;;;;5073638;28;20275;-67
2022/09/20 00:45:18;;;;;;;;;;;8.60;99.90;;;;;;5077642;28;19970;-66
2022/09/20 00:47:46;;;;;;;;;;;8.50;99.90;;;;;;5077297;28;19912;-67
2022/09/20 00:53:22;;;;;;;;;;;8.50;99.90;;;;;;5091183;27;20375;-67
2022/09/20 00:55:51;;;;;;;;;;;8.50;99.90;;;;;;5091418;28;20329;-67
2022/09/20 00:58:18;;;;;;;;;;;8.50;99.90;;;;;;5091389;28;20332;-67
2022/09/20 01:00:44;;;;;;;;;;;8.50;99.90;;;;;;5091057;28;19916;-67
2022/09/20 01:03:11;;;;;;;;;;;8.50;99.90;;;;;;5089776;28;20401;-66
2022/09/20 01:05:38;;;;;;;;;;;8.50;99.90;;;;;;5090986;28;19908;-66
2022/09/20 01:08:03;;;;;;;;;;;8.50;99.90;;;;;;5091139;28;20006;-66
2022/09/20 01:10:29;;;;;;;;;;;8.50;99.90;;;;;;5091077;28;19943;-66
2022/09/20 01:12:54;;;;;;;;;;;8.50;99.90;;;;;;5090732;28;19938;-66
2022/09/20 01:15:22;;;;;;;;;;;8.50;99.90;;;;;;5091027;28;19915;-67
2022/09/20 01:17:50;;;;;;;;;;;8.50;99.90;;;;;;5091006;28;20037;-66
2022/09/20 01:20:18;;;;;;;;;;;8.50;99.90;;;;;;5090930;28;20388;-66
2022/09/20 01:22:48;;;;;;;;;;;8.60;99.90;;;;;;5090926;28;20259;-66
2022/09/20 01:25:16;;;;;;;;;;;8.60;99.90;;;;;;5090885;28;20271;-66
2022/09/20 01:27:42;;;;;;;;;;;8.60;99.90;;;;;;5090556;28;19908;-66
2022/09/20 01:30:13;;;;;;;;;;;8.60;99.90;;;;;;5090474;28;19943;-66
2022/09/20 01:32:51;;;;;;;;;;;8.60;99.90;;;;;;5090651;28;20389;-66
2022/09/20 01:35:18;;;;;;;;;;;8.70;99.90;;;;;;5090414;28;19908;-66
2022/09/20 01:37:59;;;;;;;;;;;8.70;99.90;;;;;;5090329;28;19958;-67
2022/09/20 01:40:31;;;;;;;;;;;8.80;99.90;;;;;;5090597;28;19909;-66
2022/09/20 01:43:06;;;;;;;;;;;8.70;99.90;;;;;;5090249;28;19916;-66
2022/09/20 01:45:31;;;;;;;;;;;8.80;99.90;;;;;;5090481;28;19973;-66
2022/09/20 01:48:02;;;;;;;;;;;8.80;99.90;;;;;;5090150;28;20379;-66
2022/09/20 01:50:34;;;;;;;;;;;8.80;99.90;;;;;;5090153;28;19908;-67
2022/09/20 01:53:13;;;;;;;;;;;8.90;99.90;;;;;;5109876;28;19927;-66
2022/09/20 01:58:38;;;;;;;;;;;8.90;99.90;;;;;;5071156;28;20303;-67
2022/09/20 02:01:13;;;;;;;;;;;8.90;99.90;;;;;;5070992;28;20295;-66
2022/09/20 02:03:59;;;;;;;;;;;9.00;99.90;;;;;;5071146;28;19916;-66
2022/09/20 02:06:32;;;;;;;;;;;9.00;99.90;;;;;;5070915;28;19909;-66
2022/09/20 02:09:14;;;;;;;;;;;9.10;99.90;;;;;;5070773;28;19913;-66
2022/09/20 02:11:45;;;;;;;;;;;9.10;99.90;;;;;;5070688;28;19913;-66
2022/09/20 02:14:27;;;;;;;;;;;9.10;99.90;;;;;;5069447;28;19915;-66
2022/09/20 02:16:55;;;;;;;;;;;9.10;99.90;;;;;;5070591;28;19917;-66
2022/09/20 02:19:25;;;;;;;;;;;9.20;99.90;;;;;;5070900;28;19999;-66
2022/09/20 02:21:54;;;;;;;;;;;9.10;99.90;;;;;;5070805;28;20375;-67
2022/09/20 02:24:28;;;;;;;;;;;9.20;99.90;;;;;;5070799;28;19916;-66
2022/09/20 02:27:01;;;;;;;;;;;9.20;99.90;;;;;;5070712;28;19908;-66
2022/09/20 02:29:47;;;;;;;;;;;9.20;99.90;;;;;;5070688;28;19938;-66
2022/09/20 02:32:32;;;;;;;;;;;9.30;99.90;;;;;;5070258;28;20389;-66
2022/09/20 02:35:18;;;;;;;;;;;9.30;99.90;;;;;;5070245;28;19916;-66
2022/09/20 02:37:56;;;;;;;;;;;9.30;99.90;;;;;;5083220;28;19919;-66
2022/09/20 02:40:28;;;;;;;;;;;9.30;99.90;;;;;;5070416;28;19913;-66
2022/09/20 02:43:00;;;;;;;;;;;9.30;99.90;;;;;;5070347;28;20309;-66
2022/09/20 02:45:33;;;;;;;;;;;9.30;99.90;;;;;;5070099;28;20311;-66
2022/09/20 02:48:01;;;;;;;;;;;9.30;99.90;;;;;;5070022;28;19962;-66
2022/09/20 02:50:40;;;;;;;;;;;9.30;99.90;;;;;;5070269;28;19909;-66
2022/09/20 02:53:15;;;;;;;;;;;9.30;99.90;;;;;;5070317;28;19972;-67
2022/09/20 02:55:46;;;;;;;;;;;9.30;99.90;;;;;;5070304;28;20405;-67
2022/09/20 02:58:31;;;;;;;;;;;9.30;99.90;;;;;;5085379;28;19928;-67
2022/09/20 03:01:02;;;;;;;;;;;9.30;99.90;;;;;;5069728;28;19909;-67
2022/09/20 03:03:48;;;;;;;;;;;9.30;99.90;;;;;;5069919;28;20383;-66
2022/09/20 03:06:23;;;;;;;;;;;9.30;99.90;;;;;;5069561;28;19909;-66
2022/09/20 03:08:55;;;;;;;;;;;9.30;99.90;;;;;;5061171;28;19916;-66
2022/09/20 03:11:26;;;;;;;;;;;9.30;99.90;;;;;;5056325;28;20494;-67
2022/09/20 03:14:12;;;;;;;;;;;9.30;99.90;;;;;;5056329;28;19996;-67
2022/09/20 03:16:57;;;;;;;;;;;9.30;99.90;;;;;;5056170;28;20019;-67
2022/09/20 03:19:42;;;;;;;;;;;9.30;99.90;;;;;;5056261;28;19909;-66
2022/09/20 03:22:17;;;;;;;;;;;9.30;99.90;;;;;;5056160;28;20363;-66
2022/09/20 03:24:53;;;;;;;;;;;9.30;99.90;;;;;;5056352;28;19958;-67
2022/09/20 03:27:27;;;;;;;;;;;9.30;99.90;;;;;;5056007;28;19909;-67
2022/09/20 03:30:05;;;;;;;;;;;9.40;99.90;;;;;;5056225;28;19909;-67
2022/09/20 03:32:51;;;;;;;;;;;9.40;99.90;;;;;;5056162;28;19909;-66
2022/09/20 03:35:25;;;;;;;;;;;9.40;99.90;;;;;;5055786;28;19931;-67
2022/09/20 03:37:59;;;;;;;;;;;9.40;99.90;;;;;;5055762;28;20290;-67
2022/09/20 03:40:45;;;;;;;;;;;9.40;99.90;;;;;;5055827;28;19916;-67
2022/09/20 03:43:32;;;;;;;;;;;9.40;99.90;;;;;;5055666;28;19931;-67
2022/09/20 03:46:17;;;;;;;;;;;9.40;99.90;;;;;;5055649;28;19939;-67
2022/09/20 03:49:03;;;;;;;;;;;9.40;99.90;;;;;;5054323;28;19913;-67
2022/09/20 03:51:38;;;;;;;;;;;9.50;99.90;;;;;;5055602;28;19958;-67
2022/09/20 03:54:23;;;;;;;;;;;9.50;99.90;;;;;;5055490;28;19909;-66
2022/09/20 03:57:09;;;;;;;;;;;9.50;99.90;;;;;;5063425;28;19924;-66
2022/09/20 03:59:47;;;;;;;;;;;9.50;99.90;;;;;;5075329;28;19909;-66
2022/09/20 04:02:23;;;;;;;;;;;9.50;99.90;;;;;;5075628;28;19909;-67
2022/09/20 04:05:08;;;;;;;;;;;9.50;99.90;;;;;;5075600;28;19908;-66
2022/09/20 04:07:54;;;;;;;;;;;9.50;99.90;;;;;;5075124;28;19932;-67
2022/09/20 04:10:36;;;;;;;;;;;9.50;99.90;;;;;;5075159;28;19936;-67
2022/09/20 04:13:21;;;;;;;;;;;9.50;99.90;;;;;;5075396;28;19915;-67
2022/09/20 04:16:00;;;;;;;;;;;9.50;99.90;;;;;;5074931;28;19908;-67
2022/09/20 04:18:45;;;;;;;;;;;9.50;99.90;;;;;;5075056;28;19912;-66
2022/09/20 04:21:30;;;;;;;;;;;9.50;99.90;;;;;;5074290;28;20279;-67
2022/09/20 04:24:00;;;;;;;;;;;9.50;99.90;;;;;;5060001;28;19916;-66
2022/09/20 04:26:27;;;;;;;;;;;9.50;99.90;;;;;;5075160;28;20400;-66
2022/09/20 04:29:15;;;;;;;;;;;9.50;99.90;;;;;;5075130;28;20294;-67
2022/09/20 04:31:45;;;;;;;;;;;9.50;99.90;;;;;;5074677;28;19909;-66
2022/09/20 04:34:15;;;;;;;;;;;9.50;99.90;;;;;;5074991;28;19908;-66
2022/09/20 04:37:02;;;;;;;;;;;9.50;99.90;;;;;;5074560;28;20007;-66
2022/09/20 04:39:48;;;;;;;;;;;9.40;99.90;;;;;;5074576;28;20409;-67
2022/09/20 04:42:28;;;;;;;;;;;9.50;99.90;;;;;;5074496;28;20477;-67
2022/09/20 04:45:15;;;;;;;;;;;9.40;99.90;;;;;;5074787;28;19995;-66
2022/09/20 04:48:01;;;;;;;;;;;9.40;99.90;;;;;;5074482;28;20282;-67
2022/09/20 04:50:38;;;;;;;;;;;9.40;99.90;;;;;;5074685;28;19915;-66
2022/09/20 04:56:03;;;;;;;;;;;9.50;99.90;;;;;;5071111;28;19913;-67
2022/09/20 04:58:35;;;;;;;;;;;9.50;99.90;;;;;;5070900;28;20375;-66
2022/09/20 05:01:20;;;;;;;;;;;9.40;99.90;;;;;;5070983;28;20322;-66
2022/09/20 05:04:06;;;;;;;;;;;9.40;99.90;;;;;;5070736;28;19909;-66
2022/09/20 05:06:49;;;;;;;;;;;9.40;99.90;;;;;;5069619;28;20007;-66
2022/09/20 05:12:16;;;;;;;;;;;9.40;99.90;;;;;;5070693;28;20386;-67
2022/09/20 05:15:01;;;;;;;;;;;9.40;99.90;;;;;;5070930;28;19916;-67
2022/09/20 05:17:38;;;;;;;;;;;9.30;99.90;;;;;;5070218;28;19913;-66
2022/09/20 05:20:23;;;;;;;;;;;9.40;99.90;;;;;;5070794;28;19912;-67
2022/09/20 05:23:01;;;;;;;;;;;9.30;99.90;;;;;;5070677;28;20016;-68
2022/09/20 05:25:38;;;;;;;;;;;9.30;99.90;;;;;;5070755;28;19916;-67
2022/09/20 05:28:09;;;;;;;;;;;9.30;99.90;;;;;;5070606;28;20010;-67
2022/09/20 05:30:37;;;;;;;;;;;9.30;99.90;;;;;;5070772;28;20287;-67
2022/09/20 05:33:22;;;;;;;;;;;9.30;99.90;;;;;;5070839;28;20380;-67
2022/09/20 05:35:57;;;;;;;;;;;9.30;99.90;;;;;;5070142;28;19982;-66
2022/09/20 05:38:42;;;;;;;;;;;9.30;99.90;;;;;;5070195;28;19919;-67
2022/09/20 05:41:13;;;;;;;;;;;9.30;99.90;;;;;;5070655;28;19909;-66
2022/09/20 05:43:58;;;;;;;;;;;9.30;99.90;;;;;;5070487;28;19916;-67
2022/09/20 05:46:33;;;;;;;;;;;9.40;99.90;;;;;;5069725;28;19913;-67
2022/09/20 05:49:05;;;;;;;;;;;9.40;99.90;;;;;;5070312;28;20283;-66
2022/09/20 05:51:35;;;;;;;;;;;9.40;99.90;;;;;;5070222;28;20322;-66
2022/09/20 05:54:21;;;;;;;;;;;9.50;99.90;;;;;;5070259;28;19931;-66
2022/09/20 05:56:57;;;;;;;;;;;9.50;99.90;;;;;;5069595;28;19913;-66
2022/09/20 05:59:29;;;;;;;;;;;9.60;99.90;;;;;;5064524;28;19920;-66
2022/09/20 06:01:58;;;;;;;;;;;9.50;99.90;;;;;;5068681;28;19913;-66
2022/09/20 06:04:26;;;;;;;;;;;9.60;99.90;;;;;;5066077;28;20007;-66
2022/09/20 06:06:57;;;;;;;;;;;9.60;99.90;;;;;;5059280;28;19917;-66
2022/09/20 06:09:42;;;;;;;;;;;9.60;99.90;;;;;;5055199;28;19910;-66
2022/09/20 06:12:28;;;;;;;;;;;9.60;99.90;;;;;;5085895;28;19927;-66
2022/09/20 06:15:00;;;;;;;;;;;9.70;99.90;;;;;;5089579;28;19917;-66
2022/09/20 06:17:36;;;;;;;;;;;9.60;99.90;;;;;;5076047;28;20287;-66
2022/09/20 06:20:15;;;;;;;;;;;9.70;99.90;;;;;;5089644;28;19956;-66
2022/09/20 06:22:44;;;;;;;;;;;9.70;99.90;;;;;;5079882;28;19966;-66
2022/09/20 06:25:14;;;;;;;;;;;9.70;99.90;;;;;;5076223;28;19948;-66
2022/09/20 06:27:42;;;;;;;;;;;9.80;99.90;;;;;;5076333;28;19909;-67
2022/09/20 06:30:14;;;;;;;;;;;9.80;99.90;;;;;;5069399;28;19935;-67
2022/09/20 06:32:56;;;;;;;;;;;9.90;99.90;;;;;;5067780;28;19995;-67
2022/09/20 06:35:23;;;;;;;;;;;10.10;99.90;;;;;;5075109;28;19916;-67
2022/09/20 06:43:30;;;;;;;;;;;10.50;99.90;;;;;;5075491;28;19935;-67
2022/09/20 06:45:56;;;;;;;;;;;10.80;99.90;;;;;;5075707;28;19912;-67
2022/09/20 06:48:21;;;;;;;;;;;10.90;99.90;;;;;;5074915;28;19961;-67
2022/09/20 06:50:47;;;;;;;;;;;11.10;99.90;;;;;;5075480;28;19912;-67
2022/09/20 06:53:15;;;;;;;;;;;11.20;99.90;;;;;;5074351;28;19913;-66
2022/09/20 06:55:42;;;;;;;;;;;11.40;99.90;;;;;;5061767;28;19909;-67
2022/09/20 06:58:08;;;;;;;;;;;11.70;99.90;;;;;;5065959;28;19916;-67
2022/09/20 07:00:34;;;;;;;;;;;12.30;99.90;;;;;;5060134;28;19908;-67
2022/09/20 07:02:59;;;;;;;;;;;13.40;99.90;;;;;;5066593;28;20020;-68
2022/09/20 07:05:25;;;;;;;;;;;14.00;99.90;;;;;;5057122;28;19908;-68
2022/09/20 07:07:55;;;;;;;;;;;14.50;99.90;;;;;;5075195;28;19931;-68
2022/09/20 07:10:21;;;;;;;;;;;14.80;99.90;;;;;;5074849;28;19921;-68
2022/09/20 07:12:47;;;;;;;;;;;15.60;99.90;;;;;;5073756;28;19962;-68
2022/09/20 07:15:14;;;;;;;;;;;16.10;99.90;;;;;;5066263;28;20382;-68
2022/09/20 07:17:42;;;;;;;;;;;15.20;99.90;;;;;;5071253;28;19909;-68
2022/09/20 07:20:08;;;;;;;;;;;15.20;99.90;;;;;;5074912;28;19916;-68
2022/09/20 07:22:34;;;;;;;;;;;15.40;99.90;;;;;;5075231;28;19912;-68
2022/09/20 07:25:01;;;;;;;;;;;15.90;99.90;;;;;;5074941;28;19956;-67
2022/09/20 07:27:28;;;;;;;;;;;16.00;99.90;;;;;;5074616;28;20411;-67
2022/09/20 07:29:53;;;;;;;;;;;16.20;99.90;;;;;;5068768;28;19912;-67
2022/09/20 07:32:19;;;;;;;;;;;15.40;99.90;;;;;;5073548;28;20036;-67
2022/09/20 07:34:45;;;;;;;;;;;14.70;99.90;;;;;;5070522;28;19921;-67
2022/09/20 07:37:10;;;;;;;;;;;14.20;99.90;;;;;;5069783;28;20345;-67
2022/09/20 07:39:36;;;;;;;;;;;14.30;99.90;;;;;;5074151;28;19948;-68
2022/09/20 07:42:05;;;;;;;;;;;15.60;99.90;;;;;;5068084;28;19934;-67
2022/09/20 07:44:30;;;;;;;;;;;16.70;99.90;;;;;;5073960;28;20011;-68
2022/09/20 07:46:56;;;;;;;;;;;17.50;99.90;;;;;;5039468;28;19978;-68
2022/09/20 07:49:22;;;;;;;;;;;17.70;99.90;;;;;;5068906;28;19920;-68
2022/09/20 07:51:48;;;;;;;;;;;18.00;99.90;;;;;;5059803;28;19916;-68
2022/09/20 07:54:14;;;;;;;;;;;18.40;99.90;;;;;;5072294;28;19913;-68
2022/09/20 07:56:40;;;;;;;;;;;18.90;99.90;;;;;;5056459;28;19920;-68
2022/09/20 07:59:05;;;;;;;;;;;18.80;99.90;;;;;;5071461;28;19913;-69
2022/09/20 08:01:31;;;;;;;;;;;18.90;99.90;;;;;;5052649;28;19968;-68
2022/09/20 08:03:56;;;;;;;;;;;19.00;99.90;;;;;;5053911;28;20334;-68
2022/09/20 08:06:22;;;;;;;;;;;19.30;99.90;;;;;;5071356;28;19912;-68
2022/09/20 08:08:48;;;;;;;;;;;19.60;99.90;;;;;;5046569;28;19919;-68
2022/09/20 08:11:16;;;;;;;;;;;19.60;99.90;;;;;;5058312;28;19928;-68
2022/09/20 08:13:43;;;;;;;;;;;19.60;99.90;;;;;;5067661;28;20374;-68
2022/09/20 08:16:10;;;;;;;;;;;19.50;99.90;;;;;;5063002;28;19920;-67
2022/09/20 08:18:36;;;;;;;;;;;19.50;99.90;;;;;;5059868;28;19916;-67
2022/09/20 08:21:05;;;;;;;;;;;19.70;99.90;;;;;;5069785;28;19993;-69
2022/09/20 08:23:32;;;;;;;;;;;19.70;99.90;;;;;;5070745;28;20011;-68
2022/09/20 08:25:58;;;;;;;;;;;19.50;99.90;;;;;;5070994;28;19920;-68
2022/09/20 08:28:23;;;;;;;;;;;19.70;99.90;;;;;;5067856;28;20628;-68
2022/09/20 08:30:49;;;;;;;;;;;20.50;99.90;;;;;;5060851;28;19962;-68
2022/09/20 08:33:14;;;;;;;;;;;20.00;99.90;;;;;;5054660;28;19915;-69
2022/09/20 08:35:40;;;;;;;;;;;20.20;99.90;;;;;;5065788;28;19917;-68
2022/09/20 08:38:06;;;;;;;;;;;;;;;;;;5065710;28;19942;-68
2022/09/20 08:40:32;;;;;;;;;;;20.20;99.90;;;;;;5072681;28;20386;-68
2022/09/20 08:42:58;;;;;;;;;;;19.70;99.90;;;;;;5073272;28;20020;-67
2022/09/20 08:45:25;;;;;;;;;;;19.60;99.90;;;;;;5053676;28;19912;-68
2022/09/20 08:47:53;;;;;;;;;;;19.70;99.90;;;;;;5049919;28;20129;-68
2022/09/20 08:50:18;;;;;;;;;;;19.60;99.90;;;;;;5072796;28;20365;-68
2022/09/20 08:52:47;;;;;;;;;;;19.80;99.90;;;;;;5072765;28;20062;-68
2022/09/20 08:55:15;;;;;;;;;;;20.40;99.90;;;;;;5072759;28;19919;-68
2022/09/20 08:57:42;;;;;;;;;;;20.40;99.90;;;;;;5068933;28;20029;-67
2022/09/20 09:00:16;;;;;;;;;;;20.30;99.90;;;;;;5054137;28;20367;-69
2022/09/20 09:02:41;;;;;;;;;;;19.70;99.90;;;;;;5035403;28;19948;-68
2022/09/20 09:05:27;;;;;;;;;;;19.50;99.90;;;;;;5061541;28;20004;-68
2022/09/20 09:07:52;;;;;;;;;;;19.20;99.90;;;;;;5068589;28;19912;-69
2022/09/20 09:10:18;;;;;;;;;;;19.70;99.90;;;;;;5072168;28;19920;-67
2022/09/20 09:12:45;;;;;;;;;;;20.30;99.90;;;;;;5067502;28;19921;-68
2022/09/20 09:15:21;;;;;;;;;;;20.80;99.90;;;;;;5065502;28;20337;-68
2022/09/20 09:17:47;;;;;;;;;;;21.10;99.90;;;;;;5073306;28;19915;-68
2022/09/20 09:23:01;;;;;;;;;;;20.40;99.90;;;;;;5059808;28;19927;-68
2022/09/20 09:25:33;;;;;;;;;;;19.20;99.90;;;;;;5053859;28;20000;-66
2022/09/20 09:28:01;;;;;;;;;;;18.40;99.90;;;;;;5057961;28;19920;-68
2022/09/20 09:30:28;;;;;;;;;;;18.10;99.90;;;;;;5057053;28;20347;-68
2022/09/20 09:33:13;;;;;;;;;;;17.80;99.90;;;;;;5047711;28;19967;-68
2022/09/20 09:35:39;;;;;;;;;;;18.10;99.90;;;;;;5049363;28;19984;-69
2022/09/20 09:38:04;;;;;;;;;;;17.30;99.90;;;;;;5047436;28;20387;-68
2022/09/20 09:40:30;;;;;;;;;;;17.40;99.90;;;;;;5049602;28;19913;-68
2022/09/20 09:42:58;;;;;;;;;;;17.20;99.90;;;;;;5049702;28;19963;-67
2022/09/20 09:45:25;;;;;;;;;;;17.70;99.90;;;;;;5048460;28;19935;-69
2022/09/20 09:47:51;;;;;;;;;;;18.10;99.90;;;;;;5049727;28;20015;-66
2022/09/20 09:50:32;;;;;;;;;;;18.20;99.90;;;;;;5049420;28;20023;-67
2022/09/20 09:52:59;;;;;;;;;;;17.70;99.90;;;;;;5050220;28;19924;-67
2022/09/20 09:55:30;;;;;;;;;;;17.50;99.90;;;;;;5048085;28;19959;-68
2022/09/20 09:58:01;;;;;;;;;;;17.40;99.90;;;;;;5034737;28;19940;-67
2022/09/20 10:00:41;;;;;;;;;;;17.10;99.90;;;;;;5054171;28;19913;-67
2022/09/20 10:03:27;;;;;;;;;;;17.00;99.90;;;;;;5059087;28;19917;-67
2022/09/20 10:06:12;;;;;;;;;;;16.70;99.90;;;;;;5049298;28;19913;-67
2022/09/20 10:08:58;;;;;;;;;;;16.80;99.90;;;;;;5049088;28;19913;-67
2022/09/20 10:11:43;;;;;;;;;;;17.30;99.90;;;;;;5050992;28;19913;-67
2022/09/20 10:14:28;;;;;;;;;;;18.00;99.90;;;;;;5059969;28;20380;-67
2022/09/20 10:17:14;;;;;;;;;;;18.90;99.90;;;;;;5047841;28;19928;-68
2022/09/20 10:20:01;;;;;;;;;;;19.70;99.90;;;;;;5040606;28;19920;-68
2022/09/20 10:22:46;;;;;;;;;;;19.70;99.90;;;;;;5073941;28;19924;-68
2022/09/20 10:25:19;;;;;;;;;;;20.30;99.90;;;;;;5069053;28;20323;-67
2022/09/20 10:28:04;;;;;;;;;;;19.10;99.90;;;;;;5069468;28;19913;-67
2022/09/20 10:30:34;;;;;;;;;;;19.30;99.90;;;;;;5068321;28;19912;-68
2022/09/20 10:33:05;;;;;;;;;;;19.20;99.90;;;;;;5068322;28;20384;-68
2022/09/20 10:35:50;;;;;;;;;;;19.30;99.90;;;;;;5055980;28;20382;-68
2022/09/20 10:38:21;;;;;;;;;;;19.40;99.90;;;;;;5054435;28;19915;-68
2022/09/20 10:43:56;;;;;;;;;;;18.10;99.90;;;;;;5075784;28;19958;-68
2022/09/20 10:46:43;;;;;;;;;;;18.20;99.90;;;;;;5066207;28;19920;-68
2022/09/20 10:49:28;;;;;;;;;;;19.00;99.90;;;;;;5062066;28;19920;-68
2022/09/20 10:52:06;;;;;;;;;;;20.30;99.90;;;;;;5051766;28;20003;-68
2022/09/20 10:54:40;;;;;;;;;;;19.90;99.90;;;;;;5056158;28;20352;-68
2022/09/20 10:57:19;;;;;;;;;;;19.30;99.90;;;;;;5055489;28;20275;-68
2022/09/20 10:59:53;;;;;;;;;;;18.80;99.90;;;;;;5058980;28;20003;-68
2022/09/20 11:02:29;;;;;;;;;;;18.50;99.90;;;;;;5053985;28;19920;-67
2022/09/20 11:08:03;;;;;;;;;;;18.10;99.90;;;;;;5070631;28;19994;-67
2022/09/20 11:10:35;;;;;;;;;;;17.50;99.90;;;;;;5054839;28;20315;-67
2022/09/20 11:13:04;;;;;;;;;;;17.50;99.90;;;;;;5042615;28;20438;-67
2022/09/20 11:15:51;;;;;;;;;;;17.50;99.90;;;;;;5049313;28;19999;-67
2022/09/20 11:18:22;;;;;;;;;;;17.40;99.90;;;;;;5062544;28;19917;-68
2022/09/20 11:20:53;;;;;;;;;;;17.30;99.90;;;;;;5050968;28;19919;-68
2022/09/20 11:23:26;;;;;;;;;;;17.70;99.90;;;;;;5050103;28;19909;-67
2022/09/20 11:25:54;;;;;;;;;;;18.30;99.90;;;;;;5042797;28;19963;-68
2022/09/20 11:28:38;;;;;;;;;;;17.90;99.90;;;;;;5036367;28;19909;-67
2022/09/20 11:31:11;;;;;;;;;;;18.10;99.90;;;;;;5053526;28;19936;-67
2022/09/20 11:33:41;;;;;;;;;;;18.60;99.90;;;;;;5050444;28;20272;-67
2022/09/20 11:36:12;;;;;;;;;;;18.30;99.90;;;;;;5049758;28;19955;-67
2022/09/20 11:38:55;;;;;;;;;;;18.20;99.90;;;;;;5045824;28;21332;-67
2022/09/20 11:41:24;;;;;;;;;;;18.10;99.90;;;;;;5043314;28;20415;-67
2022/09/20 11:43:50;;;;;;;;;;;18.20;99.90;;;;;;5047376;28;20003;-67
2022/09/20 11:46:19;;;;;;;;;;;18.50;99.90;;;;;;5052442;28;20000;-67
2022/09/20 11:48:47;;;;;;;;;;;18.50;99.90;;;;;;5047333;28;19913;-68
2022/09/20 11:51:19;;;;;;;;;;;18.20;99.90;;;;;;5065678;28;19909;-67
2022/09/20 11:53:53;;;;;;;;;;;18.60;99.90;;;;;;5049991;28;19909;-67
2022/09/20 11:56:22;;;;;;;;;;;18.20;99.90;;;;;;5048764;28;19913;-67
2022/09/20 11:58:49;;;;;;;;;;;18.00;99.90;;;;;;5049820;28;20423;-67
2022/09/20 12:01:24;;;;;;;;;;;18.40;99.90;;;;;;5049513;28;19913;-67
2022/09/20 12:03:51;;;;;;;;;;;18.10;99.90;;;;;;5053896;28;19913;-67
2022/09/20 12:06:25;;;;;;;;;;;17.90;99.90;;;;;;5057954;28;20062;-67
2022/09/20 12:08:51;;;;;;;;;;;18.10;99.90;;;;;;5067027;28;20276;-68
2022/09/20 12:11:25;;;;;;;;;;;18.20;99.90;;;;;;5067953;28;19920;-67
2022/09/20 12:14:00;;;;;;;;;;;18.40;99.90;;;;;;5068994;28;19909;-68
2022/09/20 12:16:42;;;;;;;;;;;18.80;99.90;;;;;;5069273;28;19908;-67
2022/09/20 12:19:12;;;;;;;;;;;19.30;99.90;;;;;;5050910;28;19987;-68
2022/09/20 12:21:58;;;;;;;;;;;19.20;98.60;;;;;;5037380;28;19909;-67
2022/09/20 12:24:28;;;;;;;;;;;19.20;99.90;;;;;;5040525;28;19917;-67
2022/09/20 12:26:55;;;;;;;;;;;19.00;99.90;;;;;;5056355;28;19923;-68
2022/09/20 12:29:23;;;;;;;;;;;18.80;99.90;;;;;;5055572;28;19931;-67
2022/09/20 12:31:50;;;;;;;;;;;18.70;99.90;;;;;;5042977;28;19909;-67
2022/09/20 12:39:35;;;;;;;;;;;17.90;99.90;;;;;;5080093;27;20335;-66
2022/09/20 12:42:02;;;;;;;;;;;18.00;99.90;;;;;;5076279;28;19913;-67
2022/09/20 12:44:47;;;;;;;;;;;18.10;99.90;;;;;;5070383;28;19963;-67
2022/09/20 12:47:15;;;;;;;;;;;18.20;99.90;;;;;;5069480;28;19945;-67
2022/09/20 12:55:33;;;;;;;;;;;18.40;99.90;;;;;;5083758;28;19920;-67
2022/09/20 12:58:01;;;;;;;;;;;18.10;99.90;;;;;;5090751;28;19908;-68
2022/09/20 13:00:45;;;;;;;;;;;18.00;99.90;;;;;;5086540;28;20310;-67
2022/09/20 13:03:12;;;;;;;;;;;17.90;99.90;;;;;;5070628;28;19912;-67
2022/09/20 13:05:39;;;;;;;;;;;18.20;99.90;;;;;;5102741;28;19952;-67
2022/09/20 13:08:14;;;;;;;;;;;18.30;99.90;;;;;;5078424;28;19912;-67
2022/09/20 13:10:41;;;;;;;;;;;18.50;99.90;;;;;;5083400;28;20029;-67
2022/09/20 13:13:12;;;;;;;;;;;18.20;99.90;;;;;;5088586;28;20325;-67
2022/09/20 13:15:39;;;;;;;;;;;18.00;99.90;;;;;;5090564;28;19909;-67
2022/09/20 13:18:05;;;;;;;;;;;18.00;99.90;;;;;;5089217;28;19915;-67
2022/09/20 13:20:33;;;;;;;;;;;18.30;99.90;;;;;;5090475;28;19909;-67
2022/09/20 13:23:00;;;;;;;;;;;18.60;99.90;;;;;;5088699;28;19920;-67
2022/09/20 13:25:27;;;;;;;;;;;18.70;99.90;;;;;;5082271;28;20015;-67
2022/09/20 13:28:12;;;;;;;;;;;19.00;99.90;;;;;;5088641;28;19915;-68
2022/09/20 13:30:40;;;;;;;;;;;19.20;97.50;;;;;;5089783;28;20293;-67
2022/09/20 13:33:15;;;;;;;;;;;19.00;97.60;;;;;;5090417;28;19944;-66
2022/09/20 13:35:42;;;;;;;;;;;18.40;98.60;;;;;;5090312;28;19947;-67
2022/09/20 13:38:08;;;;;;;;;;;18.30;99.90;;;;;;5090354;28;20367;-67
2022/09/20 13:40:37;;;;;;;;;;;18.10;99.90;;;;;;5089885;28;19921;-67
2022/09/20 13:43:13;;;;;;;;;;;17.90;99.90;;;;;;5090322;28;20412;-66
2022/09/20 13:45:40;;;;;;;;;;;17.90;99.90;;;;;;5088801;28;19912;-67
2022/09/20 13:48:07;;;;;;;;;;;18.40;99.90;;;;;;5089590;28;19974;-67
2022/09/20 13:50:33;;;;;;;;;;;18.20;99.50;;;;;;5094987;28;20353;-67
2022/09/20 13:53:00;;;;;;;;;;;17.90;99.90;;;;;;5109995;28;19912;-68
2022/09/20 13:55:27;;;;;;;;;;;18.10;99.90;;;;;;5110022;28;19952;-67
2022/09/20 13:57:54;;;;;;;;;;;17.80;99.90;;;;;;5104161;28;20290;-68
2022/09/20 14:00:20;;;;;;;;;;;18.10;99.90;;;;;;5089785;28;20386;-68
2022/09/20 14:02:47;;;;;;;;;;;18.60;99.90;;;;;;5083106;28;19913;-68
2022/09/20 14:05:16;;;;;;;;;;;18.70;99.90;;;;;;5088594;28;19952;-68
2022/09/20 14:07:43;;;;;;;;;;;18.50;99.90;;;;;;5094004;28;19915;-68
2022/09/20 14:10:29;;;;;;;;;;;18.50;99.90;;;;;;5074255;28;20009;-68
2022/09/20 14:12:56;;;;;;;;;;;18.80;99.90;;;;;;5090400;28;19954;-68
2022/09/20 14:15:22;;;;;;;;;;;19.10;99.90;;;;;;5088456;28;19957;-68
2022/09/20 14:17:47;;;;;;;;;;;18.70;99.90;;;;;;5094928;28;20370;-68
2022/09/20 14:20:14;;;;;;;;;;;18.60;99.90;;;;;;5087278;28;19967;-68
2022/09/20 14:22:39;;;;;;;;;;;18.20;99.90;;;;;;5096417;28;19908;-68
2022/09/20 14:28:10;;;;;;;;;;;18.40;99.90;;;;;;5084901;27;19916;-67
2022/09/20 14:30:36;;;;;;;;;;;18.30;99.90;;;;;;5073883;28;19917;-68
2022/09/20 14:33:02;;;;;;;;;;;18.30;99.90;;;;;;5069933;28;19913;-68
2022/09/20 14:35:28;;;;;;;;;;;17.90;99.90;;;;;;5069386;28;20264;-67
2022/09/20 14:37:58;;;;;;;;;;;17.50;99.90;;;;;;5069980;28;20423;-68
2022/09/20 14:40:25;;;;;;;;;;;17.40;99.90;;;;;;5071086;28;20387;-68
2022/09/20 14:42:53;;;;;;;;;;;16.90;99.90;;;;;;5070882;28;19991;-68
2022/09/20 14:45:21;;;;;;;;;;;16.70;99.90;;;;;;5070833;28;19960;-68
2022/09/20 14:48:07;;;;;;;;;;;16.60;99.90;;;;;;5070291;28;19919;-68
2022/09/20 14:50:34;;;;;;;;;;;16.60;99.90;;;;;;5070583;28;20379;-67
2022/09/20 14:53:20;;;;;;;;;;;16.60;99.90;;;;;;5070758;28;19909;-68
2022/09/20 14:56:05;;;;;;;;;;;16.60;99.90;;;;;;5070524;28;20398;-68
2022/09/20 14:58:31;;;;;;;;;;;16.40;99.90;;;;;;5070298;28;19912;-68
2022/09/20 15:01:01;;;;;;;;;;;16.40;99.90;;;;;;5070603;28;19970;-68
2022/09/20 15:03:29;;;;;;;;;;;16.40;99.90;;;;;;5074151;28;19920;-67
2022/09/20 15:05:55;;;;;;;;;;;16.30;99.90;;;;;;5089639;28;20012;-68
2022/09/20 15:08:20;;;;;;;;;;;16.30;99.90;;;;;;5090271;28;19978;-68
2022/09/20 15:10:46;;;;;;;;;;;16.30;99.90;;;;;;5088940;28;19912;-68
2022/09/20 15:13:12;;;;;;;;;;;16.20;99.90;;;;;;5090358;28;19957;-68
2022/09/20 15:15:37;;;;;;;;;;;16.20;99.90;;;;;;5090109;28;19922;-68
2022/09/20 15:18:05;;;;;;;;;;;16.10;99.90;;;;;;5090175;28;19916;-68
2022/09/20 15:20:30;;;;;;;;;;;16.00;99.90;;;;;;5089974;28;19966;-68
2022/09/20 15:22:56;;;;;;;;;;;16.00;99.90;;;;;;5089792;28;19909;-67
2022/09/20 15:25:22;;;;;;;;;;;15.80;99.90;;;;;;5089420;28;20378;-67
2022/09/20 15:27:50;;;;;;;;;;;15.60;99.90;;;;;;5110188;28;19955;-67
2022/09/20 15:30:18;;;;;;;;;;;15.60;99.90;;;;;;5110457;28;20434;-68
2022/09/20 15:32:44;;;;;;;;;;;15.60;99.90;;;;;;5110501;28;20012;-68